createdAt,value
2023-02-14T00:01:40.587Z,4.16
2023-02-14T00:04:10.089Z,4.31
2023-02-14T00:06:39.017Z,4.42
2023-02-14T00:09:07.924Z,4.43
2023-02-14T00:11:35.996Z,4.80
2023-02-14T00:14:21.656Z,4.45
2023-02-14T00:16:49.754Z,4.62
2023-02-14T00:19:21.135Z,4.44
2023-02-14T00:21:49.318Z,4.42
2023-02-14T00:24:20.509Z,4.47
2023-02-14T00:26:49.460Z,4.35
2023-02-14T00:29:20.713Z,4.71
2023-02-14T00:31:48.986Z,4.40
2023-02-14T00:34:20.374Z,4.07
2023-02-14T00:36:48.999Z,4.04
2023-02-14T00:39:18.903Z,4.38
2023-02-14T00:41:47.571Z,4.40
2023-02-14T00:44:18.362Z,4.68
2023-02-14T00:46:46.728Z,4.40
2023-02-14T00:49:14.905Z,4.18
2023-02-14T00:51:44.338Z,4.31
2023-02-14T00:54:12.477Z,4.26
2023-02-14T00:56:40.581Z,4.27
2023-02-14T00:59:10.652Z,4.38
2023-02-14T01:01:38.912Z,4.37
2023-02-14T01:04:07.713Z,4.54
2023-02-14T01:06:35.932Z,4.53
2023-02-14T01:09:05.540Z,4.92
2023-02-14T01:11:34.506Z,4.85
2023-02-14T01:14:02.555Z,4.59
2023-02-14T01:16:31.524Z,5.17
2023-02-14T01:19:01.449Z,4.56
2023-02-14T01:21:32.598Z,4.51
2023-02-14T01:24:02.921Z,4.62
2023-02-14T01:26:32.501Z,4.66
2023-02-14T01:29:03.022Z,5.51
2023-02-14T01:31:34.315Z,5.49
2023-02-14T01:34:03.015Z,5.55
2023-02-14T01:36:33.424Z,5.26
2023-02-14T01:39:03.434Z,5.21
2023-02-14T01:41:35.964Z,5.14
2023-02-14T01:44:07.425Z,5.00
2023-02-14T01:46:37.051Z,5.06
2023-02-14T01:49:11.671Z,4.60
2023-02-14T01:51:44.315Z,4.94
2023-02-14T01:54:13.359Z,4.68
2023-02-14T01:56:46.892Z,4.99
2023-02-14T01:59:20.678Z,5.14
2023-02-14T02:01:51.641Z,4.71
2023-02-14T02:04:24.989Z,4.94
2023-02-14T02:06:57.472Z,4.62
2023-02-14T02:09:34.210Z,4.41
2023-02-14T02:12:04.877Z,4.41
2023-02-14T02:14:34.174Z,4.59
2023-02-14T02:17:18.840Z,4.54
2023-02-14T02:20:17.643Z,4.39
2023-02-14T02:23:13.612Z,4.35
2023-02-14T02:26:34.754Z,4.48
2023-02-14T02:29:29.035Z,4.51
2023-02-14T02:32:30.418Z,4.44
2023-02-14T02:35:37.077Z,4.45
2023-02-14T02:38:21.431Z,4.25
2023-02-14T02:41:03.053Z,4.55
2023-02-14T02:43:44.728Z,4.42
2023-02-14T02:46:40.127Z,4.19
2023-02-14T02:49:39.537Z,4.78
2023-02-14T02:52:35.377Z,4.60
2023-02-14T02:55:09.047Z,4.20
2023-02-14T02:57:40.397Z,4.34
2023-02-14T03:00:13.490Z,4.51
2023-02-14T03:03:03.004Z,4.52
2023-02-14T03:05:35.222Z,4.38
2023-02-14T03:08:05.697Z,4.44
2023-02-14T03:10:37.408Z,4.35
2023-02-14T03:13:28.440Z,4.27
2023-02-14T03:16:31.307Z,4.41
2023-02-14T03:19:16.607Z,4.32
2023-02-14T03:21:52.392Z,4.54
2023-02-14T03:24:28.831Z,4.53
2023-02-14T03:27:05.622Z,4.52
2023-02-14T03:29:45.513Z,4.65
2023-02-14T03:32:21.161Z,4.58
2023-02-14T03:34:55.825Z,4.91
2023-02-14T03:37:30.110Z,4.72
2023-02-14T03:40:06.724Z,4.76
2023-02-14T03:42:40.524Z,4.25
2023-02-14T03:45:13.474Z,4.16
2023-02-14T03:47:44.534Z,4.54
2023-02-14T03:50:17.631Z,4.41
2023-02-14T03:52:47.646Z,4.75
2023-02-14T03:55:23.784Z,4.17
2023-02-14T03:57:57.319Z,4.09
2023-02-14T04:00:25.956Z,4.31
2023-02-14T04:02:58.338Z,4.70
2023-02-14T04:05:28.877Z,4.15
2023-02-14T04:07:59.224Z,4.67
2023-02-14T04:10:28.762Z,4.87
2023-02-14T04:12:56.844Z,4.39
2023-02-14T04:15:24.916Z,4.79
2023-02-14T04:18:10.199Z,4.44
2023-02-14T04:20:38.332Z,4.39
2023-02-14T04:23:06.374Z,4.82
2023-02-14T04:25:35.787Z,4.33
2023-02-14T04:28:03.849Z,4.38
2023-02-14T04:30:31.930Z,4.26
2023-02-14T04:33:00.017Z,4.91
2023-02-14T04:35:28.102Z,4.25
2023-02-14T04:37:56.136Z,4.56
2023-02-14T04:40:24.137Z,4.30
2023-02-14T04:42:53.627Z,4.12
2023-02-14T04:45:21.752Z,4.25
2023-02-14T04:47:50.062Z,4.37
2023-02-14T04:50:19.275Z,4.51
2023-02-14T04:52:47.368Z,4.67
2023-02-14T04:55:15.544Z,4.82
2023-02-14T04:57:43.583Z,4.80
2023-02-14T05:00:14.556Z,4.89
2023-02-14T05:02:42.631Z,4.85
2023-02-14T05:05:10.970Z,4.47
2023-02-14T05:07:39.022Z,4.97
2023-02-14T05:10:07.884Z,4.55
2023-02-14T05:12:36.181Z,4.56
2023-02-14T05:15:04.373Z,4.85
2023-02-14T05:17:33.855Z,4.65
2023-02-14T05:20:01.921Z,4.59
2023-02-14T05:22:30.067Z,4.47
2023-02-14T05:24:58.365Z,4.51
2023-02-14T05:27:26.526Z,4.40
2023-02-14T05:29:54.664Z,4.85
2023-02-14T05:32:22.779Z,4.39
2023-02-14T05:34:52.152Z,5.10
2023-02-14T05:37:20.296Z,4.87
2023-02-14T05:39:48.360Z,4.52
2023-02-14T05:42:16.530Z,5.05
2023-02-14T05:44:44.725Z,4.33
2023-02-14T05:47:13.294Z,4.87
2023-02-14T05:49:41.432Z,4.85
2023-02-14T05:52:11.369Z,4.72
2023-02-14T05:54:39.411Z,4.56
2023-02-14T05:57:07.571Z,4.79
2023-02-14T05:59:35.581Z,4.38
2023-02-14T06:02:03.818Z,4.55
2023-02-14T06:04:31.929Z,4.13
2023-02-14T06:07:00.000Z,4.15
2023-02-14T06:09:29.453Z,4.64
2023-02-14T06:11:57.501Z,4.57
2023-02-14T06:14:25.914Z,4.35
2023-02-14T06:16:54.008Z,4.37
2023-02-14T06:19:22.237Z,4.37
2023-02-14T06:21:50.358Z,4.43
2023-02-14T06:24:18.555Z,4.42
2023-02-14T06:26:47.990Z,4.43
2023-02-14T06:29:18.414Z,4.06
2023-02-14T06:31:46.630Z,4.30
2023-02-14T06:34:16.130Z,4.16
2023-02-14T06:36:44.303Z,4.26
2023-02-14T06:39:12.412Z,4.43
2023-02-14T06:41:40.438Z,4.29
2023-02-14T06:44:10.616Z,4.50
2023-02-14T06:46:38.773Z,4.41
2023-02-14T06:49:06.800Z,4.32
2023-02-14T06:51:34.940Z,4.29
2023-02-14T06:54:02.988Z,4.50
2023-02-14T06:56:31.107Z,4.91
2023-02-14T06:58:59.130Z,4.72
2023-02-14T07:01:28.573Z,4.80
2023-02-14T07:03:56.613Z,4.80
2023-02-14T07:06:24.733Z,3.84
2023-02-14T07:08:52.923Z,4.05
2023-02-14T07:11:21.080Z,3.62
2023-02-14T07:13:49.575Z,4.35
2023-02-14T07:16:17.850Z,4.27
2023-02-14T07:18:47.343Z,3.77
2023-02-14T07:21:15.505Z,4.15
2023-02-14T07:23:46.390Z,3.81
2023-02-14T07:26:18.186Z,4.22
2023-02-14T07:28:46.508Z,3.80
2023-02-14T07:31:14.671Z,4.17
2023-02-14T07:33:42.785Z,4.17
2023-02-14T07:36:12.902Z,4.33
2023-02-14T07:38:41.041Z,4.02
2023-02-14T07:41:09.043Z,4.09
2023-02-14T07:43:37.138Z,3.84
2023-02-14T07:46:05.413Z,3.95
2023-02-14T07:48:34.447Z,4.20
2023-02-14T07:51:03.402Z,4.42
2023-02-14T07:53:32.982Z,4.40
2023-02-14T07:56:01.166Z,3.99
2023-02-14T07:58:29.200Z,4.26
2023-02-14T08:00:57.334Z,4.09
2023-02-14T08:03:25.567Z,4.32
2023-02-14T08:05:57.388Z,4.69
2023-02-14T08:08:26.927Z,4.82
2023-02-14T08:10:56.503Z,4.45
2023-02-14T08:13:24.536Z,4.50
2023-02-14T08:16:15.599Z,5.12
2023-02-14T08:18:44.483Z,5.14
2023-02-14T08:21:12.493Z,4.94
2023-02-14T08:23:40.563Z,4.83
2023-02-14T08:26:10.442Z,4.49
2023-02-14T08:28:38.444Z,4.78
2023-02-14T08:31:06.777Z,5.27
2023-02-14T08:33:34.881Z,4.63
2023-02-14T08:36:03.066Z,4.88
2023-02-14T08:38:31.208Z,5.01
2023-02-14T08:41:03.924Z,5.31
2023-02-14T08:43:35.356Z,5.29
2023-02-14T08:46:03.575Z,5.05
2023-02-14T08:48:31.818Z,5.31
2023-02-14T08:51:00.195Z,5.64
2023-02-14T08:53:28.578Z,5.32
2023-02-14T08:55:56.605Z,5.74
2023-02-14T08:58:24.737Z,5.52
2023-02-14T09:00:55.742Z,5.32
2023-02-14T09:03:23.952Z,5.27
2023-02-14T09:05:52.298Z,5.50
2023-02-14T09:08:20.607Z,5.53
2023-02-14T09:10:48.689Z,4.75
2023-02-14T09:13:16.814Z,5.19
2023-02-14T09:15:45.108Z,5.95
2023-02-14T09:18:15.271Z,5.97
2023-02-14T09:20:44.465Z,5.64
2023-02-14T09:23:12.476Z,6.61
2023-02-14T09:25:41.169Z,5.88
2023-02-14T09:28:09.194Z,5.37
2023-02-14T09:30:37.257Z,5.56
2023-02-14T09:33:05.511Z,5.41
2023-02-14T09:35:52.563Z,5.88
2023-02-14T09:38:20.875Z,6.93
2023-02-14T09:40:50.647Z,6.02
2023-02-14T09:43:24.917Z,6.23
2023-02-14T09:45:56.513Z,6.15
2023-02-14T09:48:32.530Z,6.55
2023-02-14T09:51:05.079Z,6.86
2023-02-14T09:53:36.423Z,6.52
2023-02-14T09:56:12.081Z,6.37
2023-02-14T09:58:47.103Z,5.87
2023-02-14T10:01:23.415Z,6.44
2023-02-14T10:04:22.308Z,5.85
2023-02-14T10:06:56.109Z,6.06
2023-02-14T10:09:42.649Z,6.66
2023-02-14T10:12:17.982Z,6.96
2023-02-14T10:14:46.586Z,6.96
2023-02-14T10:17:19.542Z,7.22
2023-02-14T10:19:52.810Z,6.63
2023-02-14T10:22:27.404Z,6.89
2023-02-14T10:25:01.311Z,7.00
2023-02-14T10:27:34.030Z,7.29
2023-02-14T10:30:03.509Z,7.15
2023-02-14T10:32:38.960Z,6.36
2023-02-14T10:35:17.298Z,6.27
2023-02-14T10:37:59.003Z,6.59
2023-02-14T10:40:46.999Z,7.04
2023-02-14T10:43:24.670Z,6.29
2023-02-14T10:46:03.688Z,7.25
2023-02-14T10:48:44.149Z,6.99
2023-02-14T10:51:17.918Z,6.87
2023-02-14T10:54:01.824Z,6.98
2023-02-14T10:56:36.641Z,7.06
2023-02-14T10:59:16.412Z,6.75
2023-02-14T11:01:45.104Z,6.79
2023-02-14T11:04:14.761Z,7.19
2023-02-14T11:06:42.822Z,6.82
2023-02-14T11:09:13.029Z,6.36
2023-02-14T11:11:44.973Z,6.86
2023-02-14T11:14:24.887Z,7.22
2023-02-14T11:16:54.662Z,6.94
2023-02-14T11:19:26.340Z,7.11
2023-02-14T11:21:55.880Z,7.04
2023-02-14T11:24:31.440Z,7.01
2023-02-14T11:27:01.796Z,6.96
2023-02-14T11:29:32.602Z,7.42
2023-02-14T11:32:09.762Z,6.64
2023-02-14T11:34:40.552Z,7.03
2023-02-14T11:37:26.263Z,7.13
2023-02-14T11:39:59.083Z,6.61
2023-02-14T11:42:38.222Z,7.02
2023-02-14T11:45:07.637Z,7.45
2023-02-14T11:47:41.515Z,6.87
2023-02-14T11:50:23.362Z,6.68
2023-02-14T11:52:54.181Z,7.20
2023-02-14T11:55:29.555Z,6.32
2023-02-14T11:57:58.813Z,6.15
2023-02-14T12:00:27.912Z,6.83
2023-02-14T12:02:57.127Z,6.70
2023-02-14T12:05:29.391Z,7.07
2023-02-14T12:08:01.070Z,6.50
2023-02-14T12:10:31.874Z,6.37
2023-02-14T12:13:01.699Z,6.48
2023-02-14T12:15:36.874Z,6.10
2023-02-14T12:18:52.833Z,6.02
2023-02-14T12:21:42.292Z,7.35
2023-02-14T12:24:19.890Z,5.73
2023-02-14T12:26:58.437Z,6.52
2023-02-14T12:29:33.335Z,6.12
2023-02-14T12:32:09.385Z,6.95
2023-02-14T12:34:37.723Z,6.83
2023-02-14T12:37:18.180Z,6.49
2023-02-14T12:40:20.394Z,6.59
2023-02-14T12:43:11.633Z,6.68
2023-02-14T12:46:05.135Z,6.56
2023-02-14T12:48:44.205Z,6.32
2023-02-14T12:51:18.475Z,6.22
2023-02-14T12:54:06.194Z,6.91
2023-02-14T12:56:47.112Z,7.18
2023-02-14T12:59:28.933Z,7.36
2023-02-14T13:02:34.420Z,6.86
2023-02-14T13:05:07.970Z,6.94
2023-02-14T13:07:52.699Z,7.10
2023-02-14T13:10:33.815Z,7.27
2023-02-14T13:13:07.783Z,6.60
2023-02-14T13:15:45.602Z,6.81
2023-02-14T13:18:20.185Z,6.86
2023-02-14T13:20:53.501Z,7.37
2023-02-14T13:23:28.731Z,7.34
2023-02-14T13:26:02.675Z,6.61
2023-02-14T13:28:33.037Z,6.29
2023-02-14T13:31:03.355Z,6.35
2023-02-14T13:33:36.840Z,6.19
2023-02-14T13:36:09.222Z,6.36
2023-02-14T13:38:44.277Z,6.07
2023-02-14T13:41:13.460Z,6.89
2023-02-14T13:43:53.585Z,6.45
2023-02-14T13:46:42.329Z,6.91
2023-02-14T13:49:27.239Z,7.10
2023-02-14T13:51:57.344Z,7.17
2023-02-14T13:54:41.135Z,6.75
2023-02-14T13:57:36.681Z,7.11
2023-02-14T14:00:50.371Z,6.92
2023-02-14T14:03:57.307Z,6.90
2023-02-14T14:06:25.449Z,7.04
2023-02-14T14:08:57.110Z,6.46
2023-02-14T14:11:59.728Z,6.52
2023-02-14T14:14:36.334Z,7.00
2023-02-14T14:17:20.744Z,7.26
2023-02-14T14:19:50.513Z,6.85
2023-02-14T14:22:20.000Z,7.56
2023-02-14T14:24:57.451Z,6.52
2023-02-14T14:27:30.851Z,7.19
2023-02-14T14:30:01.147Z,6.52
2023-02-14T14:32:31.528Z,6.22
2023-02-14T14:35:03.915Z,6.93
2023-02-14T14:37:34.894Z,7.07
2023-02-14T14:40:06.616Z,6.70
2023-02-14T14:42:43.014Z,7.26
2023-02-14T14:45:22.988Z,7.40
2023-02-14T14:47:54.367Z,6.76
2023-02-14T14:50:26.520Z,7.50
2023-02-14T14:52:57.016Z,6.03
2023-02-14T14:55:27.676Z,5.98
2023-02-14T14:57:58.536Z,6.68
2023-02-14T15:00:29.619Z,7.25
2023-02-14T15:03:04.149Z,7.25
2023-02-14T15:05:36.158Z,7.44
2023-02-14T15:08:20.979Z,7.90
2023-02-14T15:10:54.448Z,7.56
2023-02-14T15:13:48.553Z,7.72
2023-02-14T15:16:20.455Z,8.11
2023-02-14T15:18:49.486Z,8.32
2023-02-14T15:21:19.101Z,8.09
2023-02-14T15:23:47.866Z,7.85
2023-02-14T15:26:24.330Z,7.93
2023-02-14T15:28:58.116Z,8.20
2023-02-14T15:31:30.843Z,8.47
2023-02-14T15:34:01.509Z,8.06
2023-02-14T15:36:32.644Z,8.21
2023-02-14T15:39:03.521Z,7.50
2023-02-14T15:41:31.807Z,7.63
2023-02-14T15:44:00.585Z,7.79
2023-02-14T15:46:35.321Z,7.69
2023-02-14T15:49:10.751Z,7.95
2023-02-14T15:51:41.050Z,7.91
2023-02-14T15:54:20.021Z,7.55
2023-02-14T15:56:51.438Z,7.65
2023-02-14T15:59:22.131Z,7.37
2023-02-14T16:01:52.965Z,7.94
2023-02-14T16:04:25.796Z,8.15
2023-02-14T16:07:22.674Z,8.27
2023-02-14T16:09:51.716Z,8.29
2023-02-14T16:12:32.471Z,7.85
2023-02-14T16:15:04.801Z,8.26
2023-02-14T16:17:34.823Z,8.32
2023-02-14T16:20:23.629Z,8.09
2023-02-14T16:22:53.210Z,7.83
2023-02-14T16:25:21.789Z,7.62
2023-02-14T16:27:49.887Z,8.13
2023-02-14T16:30:19.329Z,7.77
2023-02-14T16:32:53.745Z,8.22
2023-02-14T16:35:22.910Z,7.73
2023-02-14T16:37:53.353Z,7.80
2023-02-14T16:40:26.375Z,8.19
2023-02-14T16:42:54.954Z,7.63
2023-02-14T16:45:23.285Z,7.85
2023-02-14T16:47:51.558Z,7.49
2023-02-14T16:50:20.479Z,7.90
2023-02-14T16:52:52.688Z,7.18
2023-02-14T16:55:21.156Z,7.36
2023-02-14T16:57:51.424Z,7.20
2023-02-14T17:00:20.134Z,7.19
2023-02-14T17:02:48.416Z,7.33
2023-02-14T17:05:16.640Z,7.61
2023-02-14T17:07:45.367Z,7.69
2023-02-14T17:10:19.700Z,7.85
2023-02-14T17:12:50.066Z,7.52
2023-02-14T17:15:24.628Z,7.26
2023-02-14T17:17:58.038Z,7.02
2023-02-14T17:20:26.279Z,7.47
2023-02-14T17:22:55.584Z,7.58
2023-02-14T17:25:25.527Z,7.21
2023-02-14T17:27:53.942Z,8.02
2023-02-14T17:30:22.094Z,7.88
2023-02-14T17:32:50.831Z,7.51
2023-02-14T17:35:20.198Z,7.99
2023-02-14T17:37:48.469Z,7.93
2023-02-14T17:40:16.729Z,7.78
2023-02-14T17:42:46.229Z,7.79
2023-02-14T17:45:14.286Z,8.17
2023-02-14T17:47:43.563Z,8.22
2023-02-14T17:50:13.155Z,7.82
2023-02-14T17:52:41.344Z,8.16
2023-02-14T17:55:10.231Z,7.97
2023-02-14T17:57:40.913Z,7.65
2023-02-14T18:00:12.208Z,7.45
2023-02-14T18:02:43.231Z,8.02
2023-02-14T18:05:12.485Z,7.97
2023-02-14T18:07:40.549Z,7.67
2023-02-14T18:10:09.230Z,6.96
2023-02-14T18:12:37.267Z,7.07
2023-02-14T18:15:06.105Z,7.00
2023-02-14T18:17:35.591Z,7.00
2023-02-14T18:20:05.369Z,6.89
2023-02-14T18:22:33.604Z,6.61
2023-02-14T18:25:01.692Z,6.83
2023-02-14T18:27:29.755Z,6.42
2023-02-14T18:29:57.813Z,6.68
2023-02-14T18:32:25.993Z,6.88
2023-02-14T18:34:55.408Z,6.61
2023-02-14T18:37:23.450Z,6.53
2023-02-14T18:39:51.479Z,6.59
2023-02-14T18:42:19.537Z,7.18
2023-02-14T18:44:47.566Z,6.67
2023-02-14T18:47:15.645Z,6.30
2023-02-14T18:49:43.665Z,6.02
2023-02-14T18:52:13.124Z,6.02
2023-02-14T18:54:41.271Z,6.44
2023-02-14T18:57:09.503Z,6.85
2023-02-14T18:59:37.584Z,7.02
2023-02-14T19:02:05.862Z,7.44
2023-02-14T19:04:33.973Z,7.63
2023-02-14T19:07:04.498Z,7.08
2023-02-14T19:09:39.019Z,7.80
2023-02-14T19:12:07.667Z,7.67
2023-02-14T19:14:35.773Z,6.84
2023-02-14T19:17:05.648Z,7.60
2023-02-14T19:19:33.801Z,7.93
2023-02-14T19:22:02.570Z,7.72
2023-02-14T19:24:30.945Z,7.70
2023-02-14T19:27:00.376Z,8.02
2023-02-14T19:29:28.482Z,8.11
2023-02-14T19:31:56.591Z,8.20
2023-02-14T19:34:28.940Z,7.30
2023-02-14T19:36:59.856Z,6.64
2023-02-14T19:39:30.658Z,7.15
2023-02-14T19:42:01.343Z,6.70
2023-02-14T19:44:31.393Z,7.25
2023-02-14T19:47:04.179Z,7.94
2023-02-14T19:49:36.339Z,7.84
2023-02-14T19:52:06.296Z,8.07
2023-02-14T19:54:39.409Z,7.87
2023-02-14T19:57:08.899Z,7.44
2023-02-14T19:59:36.970Z,6.88
2023-02-14T20:02:05.299Z,7.21
2023-02-14T20:04:33.428Z,7.84
2023-02-14T20:07:01.529Z,8.15
2023-02-14T20:09:29.615Z,6.58
2023-02-14T20:12:01.479Z,6.09
2023-02-14T20:14:40.805Z,6.05
2023-02-14T20:17:17.387Z,5.84
2023-02-14T20:19:45.485Z,5.68
2023-02-14T20:22:15.357Z,6.05
2023-02-14T20:24:43.411Z,6.52
2023-02-14T20:27:11.567Z,5.95
2023-02-14T20:29:43.292Z,5.87
2023-02-14T20:32:12.403Z,6.49
2023-02-14T20:34:40.878Z,6.82
2023-02-14T20:37:11.188Z,7.29
2023-02-14T20:39:39.586Z,7.47
2023-02-14T20:42:08.741Z,6.39
2023-02-14T20:44:36.924Z,6.43
2023-02-14T20:47:06.845Z,6.54
2023-02-14T20:49:35.893Z,6.70
2023-02-14T20:52:04.430Z,6.99
2023-02-14T20:54:32.673Z,6.91
2023-02-14T20:57:00.760Z,6.51
2023-02-14T20:59:29.076Z,6.79
2023-02-14T21:01:58.635Z,6.23
2023-02-14T21:04:28.805Z,5.96
2023-02-14T21:06:57.976Z,5.87
2023-02-14T21:09:26.358Z,5.81
2023-02-14T21:11:54.957Z,5.84
2023-02-14T21:14:23.066Z,5.96
2023-02-14T21:16:51.124Z,6.36
2023-02-14T21:19:19.845Z,6.05
2023-02-14T21:21:49.283Z,6.03
2023-02-14T21:24:17.777Z,6.75
2023-02-14T21:26:46.272Z,7.61
2023-02-14T21:29:14.328Z,8.00
2023-02-14T21:31:43.129Z,8.01
2023-02-14T21:34:11.400Z,7.73
2023-02-14T21:36:39.452Z,8.12
2023-02-14T21:39:09.380Z,8.27
2023-02-14T21:41:38.057Z,8.31
2023-02-14T21:44:07.140Z,8.33
2023-02-14T21:46:41.230Z,8.42
2023-02-14T21:49:26.762Z,8.42
2023-02-14T21:51:54.808Z,8.21
2023-02-14T21:54:24.231Z,8.36
2023-02-14T21:56:52.272Z,8.46
2023-02-14T21:59:20.312Z,8.18
2023-02-14T22:01:48.472Z,8.46
2023-02-14T22:04:16.568Z,8.41
2023-02-14T22:06:44.634Z,8.30
2023-02-14T22:09:18.740Z,8.35
2023-02-14T22:11:48.621Z,7.43
2023-02-14T22:14:16.823Z,7.81
2023-02-14T22:16:44.848Z,8.08
2023-02-14T22:19:16.219Z,8.32
2023-02-14T22:21:44.584Z,8.30
2023-02-14T22:24:12.844Z,8.09
2023-02-14T22:26:41.883Z,8.12
2023-02-14T22:29:13.358Z,7.77
2023-02-14T22:31:43.514Z,7.98
2023-02-14T22:34:14.588Z,8.32
2023-02-14T22:36:42.890Z,8.16
2023-02-14T22:39:13.784Z,8.20
2023-02-14T22:41:41.878Z,8.35
2023-02-14T22:44:11.463Z,8.21
2023-02-14T22:46:39.616Z,7.66
2023-02-14T22:49:08.310Z,7.92
2023-02-14T22:51:38.235Z,7.88
2023-02-14T22:54:08.524Z,8.15
2023-02-14T22:56:38.911Z,8.31
2023-02-14T22:59:09.154Z,8.40
2023-02-14T23:01:38.639Z,8.46
2023-02-14T23:04:07.074Z,8.53
2023-02-14T23:06:37.226Z,8.51
2023-02-14T23:09:06.917Z,8.45
2023-02-14T23:11:37.878Z,8.55
2023-02-14T23:14:24.888Z,8.10
2023-02-14T23:17:12.092Z,8.33
2023-02-14T23:19:57.448Z,8.12
2023-02-14T23:22:28.081Z,7.87
2023-02-14T23:24:58.371Z,7.17
2023-02-14T23:27:30.561Z,6.92
2023-02-14T23:29:58.732Z,7.06
2023-02-14T23:32:28.288Z,6.55
2023-02-14T23:34:56.396Z,6.95
2023-02-14T23:37:24.502Z,7.15
2023-02-14T23:39:52.555Z,6.82
2023-02-14T23:42:20.633Z,6.66
2023-02-14T23:44:49.521Z,6.91
2023-02-14T23:47:18.014Z,7.21
2023-02-14T23:49:47.590Z,7.65
2023-02-14T23:52:15.662Z,7.98
2023-02-14T23:54:43.723Z,8.10
2023-02-14T23:57:12.041Z,8.19
2023-02-14T23:59:40.086Z,8.33
